Avery, Idaho
Current Conditions -  °F | °C
As of 12:44 PM on Saturday 25 Oct 2014 (Local Time) from KMLP Reporting Station
Haze Haze  
Wind Chill: 37°   Ceiling: 100
Heat Index: 41°   Visibility: 0.75mi
Dew Point: 41°   Wind: 6mph
Humidity: 100%   Direction: 190°S
Pressure: 29.77"   Gusts: NA
Location:  47.25°N, 115.81°W
Report Text: KMLP 251944Z AUTO 19005KT 3/4SM BR VV001 05/05 A2977 RMK AO2 T00500050
Loading
Personal Weather Stations






























Interactive Weather Map New forecast layout! Learn more

10-Day Weather Forecast

Advertisements
Track Severe Weather on mobile